Archival Weather

Snohomish County (Paine Fld)

Everett, Washington (KPAE)

Report from: Friday, November 10, 2023 3:53 AM PST
Current time: Monday, June 17, 2024 12:46 AM PDT

Current weather – Weather history – Daily summaries
Weather forecast

Temperature7.8°C (46.0°F)
Wind chill6.2°C (43.1°F)
Dew point5.6°C (42.1°F)
Winds 5 kts (2.6 m/s, 5.8 mph) South-Southeast (150°)
Visibility10 mi. (16.1 km)
Clouds Ceiling: Overcast 1,100 ft. (335 m)
Altimeter30.08 in.Hg (1019 mB)
Precip last 24 hours0.17 in. (4 mm)
Relative humidity86 %
Density altitude-925 ft. (-282 m)
Sea-level pressure101.9 kPa (1019 mB, 30.09 in.Hg)
Max temp last 6 hours8.3°C (46.9°F)
Min temp last 6 hours7.8°C (46.0°F)
Remarks Fully automated report
Automated weather observing station with precipitation discriminator
Pressure rising, then falling
Flight conditions Marginal Visual Meteorological Conditions
Raw dataKPAE 101153Z AUTO 15005KT 10SM OVC011 08/06 A3008 RMK AO2 SLP189 70017 T00780056 10083 20078 50005
An error has occurred. This application may no longer respond until reloaded. Reload 🗙